Lacolle, Canada
Current Conditions -  °F | °C
As of 7:55 PM on Saturday 20 Dec 2014 (Local Time) from KFSO Reporting Station
Haze Haze  
Wind Chill: 15°   Ceiling: 700
Heat Index: 15°   Visibility: 4mi
Dew Point: 12°   Wind: 0mph
Humidity: 90%   Direction: NA
Pressure: 30.33"   Gusts: NA
Location:  45.08°N, 73.37°W
Report Text: KFSO 210055Z AUTO 00000KT 4SM BR OVC007 M10/M11 A3033 RMK AO2 T10971110
Loading
Personal Weather Stations






























Interactive Weather Map New forecast layout! Learn more

10-Day Weather Forecast

Advertisements
Track Severe Weather on mobile